Time;durP1;ratioP1;P1;durP2;ratioP2;P2;SDS_P1;SDS_P2;PMS_P1;PMS_P2;Temp;Humidity;BMP_temperature;BMP_pressure;BME280_temperature;BME280_humidity;BME280_pressure;Samples;Min_cycle;Max_cycle;Signal;HPM_P1;HPM_P2
2022/05/16 00:00:40;;;;;;;;;;;14.90;97.40;;;;;;4591617;19;20324;-27
2022/05/16 00:02:12;;;;;;;;;;;14.90;97.30;;;;;;4590287;19;19934;-28
2022/05/16 00:03:43;;;;;;;;;;;14.90;97.10;;;;;;4590836;19;19914;-27
2022/05/16 00:05:14;;;;;;;;;;;14.90;97.10;;;;;;4591141;19;20275;-27
2022/05/16 00:06:45;;;;;;;;;;;14.90;97.00;;;;;;4591956;19;19938;-28
2022/05/16 00:08:15;;;;;;;;;;;14.90;97.00;;;;;;4591166;19;19919;-27
2022/05/16 00:09:47;;;;;;;;;;;14.90;97.40;;;;;;4591524;19;20359;-27
2022/05/16 00:11:18;;;;;;;;;;;14.90;97.10;;;;;;4591393;19;19911;-28
2022/05/16 00:12:48;;;;;;;;;;;14.90;96.90;;;;;;4591797;19;19911;-29
2022/05/16 00:14:20;;;;;;;;;;;14.80;96.90;;;;;;4589915;19;20325;-27
2022/05/16 00:15:51;;;;;;;;;;;14.80;97.00;;;;;;4590694;19;20241;-29
2022/05/16 00:17:23;;;;;;;;;;;14.90;97.00;;;;;;4591706;19;19919;-27
2022/05/16 00:18:54;;;;;;;;;;;14.80;97.00;;;;;;4587732;19;19947;-27
2022/05/16 00:20:25;;;;;;;;;;;14.80;97.00;;;;;;4589716;19;19914;-29
2022/05/16 00:21:57;;;;;;;;;;;14.80;97.00;;;;;;4588852;19;19918;-29
2022/05/16 00:23:28;;;;;;;;;;;14.90;97.10;;;;;;4590559;19;19914;-28
2022/05/16 00:24:59;;;;;;;;;;;14.80;96.90;;;;;;4589745;19;19921;-27
2022/05/16 00:26:30;;;;;;;;;;;14.80;96.80;;;;;;4590353;19;19918;-27
2022/05/16 00:28:01;;;;;;;;;;;14.80;96.70;;;;;;4591642;19;20328;-27
2022/05/16 00:29:32;;;;;;;;;;;14.80;96.80;;;;;;4591540;19;19970;-27
2022/05/16 00:31:03;;;;;;;;;;;14.80;96.80;;;;;;4590846;19;19914;-27
2022/05/16 00:32:34;;;;;;;;;;;14.80;96.70;;;;;;4591030;19;19943;-29
2022/05/16 00:34:06;;;;;;;;;;;14.80;96.80;;;;;;4589357;19;19970;-27
2022/05/16 00:35:36;;;;;;;;;;;14.80;96.80;;;;;;4591212;19;19925;-27
2022/05/16 00:37:07;;;;;;;;;;;14.80;96.70;;;;;;4590702;19;19918;-29
2022/05/16 00:38:38;;;;;;;;;;;14.80;96.70;;;;;;4590204;19;19925;-29
2022/05/16 00:40:11;;;;;;;;;;;14.80;96.60;;;;;;4591159;19;19986;-27
2022/05/16 00:41:42;;;;;;;;;;;14.80;96.60;;;;;;4590639;19;19921;-28
2022/05/16 00:43:13;;;;;;;;;;;14.80;96.60;;;;;;4590834;19;19931;-28
2022/05/16 00:44:44;;;;;;;;;;;14.70;96.60;;;;;;4591173;19;20253;-28
2022/05/16 00:46:15;;;;;;;;;;;14.70;96.60;;;;;;4589685;19;20337;-27
2022/05/16 00:47:46;;;;;;;;;;;14.70;96.60;;;;;;4590228;19;19971;-29
2022/05/16 00:49:21;;;;;;;;;;;14.70;96.60;;;;;;4590824;19;20324;-28
2022/05/16 00:50:52;;;;;;;;;;;14.70;96.60;;;;;;4591078;19;19907;-28
2022/05/16 00:52:25;;;;;;;;;;;14.70;96.60;;;;;;4590320;19;19914;-27
2022/05/16 00:53:57;;;;;;;;;;;14.70;96.60;;;;;;4589371;19;19914;-27
2022/05/16 00:55:32;;;;;;;;;;;14.70;96.50;;;;;;4590047;19;20343;-27
2022/05/16 00:57:11;;;;;;;;;;;14.70;96.60;;;;;;4589361;19;20357;-27
2022/05/16 00:58:43;;;;;;;;;;;14.70;96.60;;;;;;4589529;19;19919;-29
2022/05/16 01:00:14;;;;;;;;;;;14.70;96.70;;;;;;4590239;19;19919;-27
2022/05/16 01:05:24;;;;;;;;;;;14.70;96.60;;;;;;4590649;19;20069;-28
2022/05/16 01:06:55;;;;;;;;;;;14.70;96.60;;;;;;4589384;19;19926;-28
2022/05/16 01:08:26;;;;;;;;;;;14.70;96.50;;;;;;4589198;19;20336;-27
2022/05/16 01:09:57;;;;;;;;;;;14.70;96.50;;;;;;4589647;19;19925;-29
2022/05/16 01:11:29;;;;;;;;;;;14.70;96.40;;;;;;4589990;19;19937;-27
2022/05/16 01:13:01;;;;;;;;;;;14.70;96.40;;;;;;4588877;19;19914;-27
2022/05/16 01:14:45;;;;;;;;;;;14.70;96.20;;;;;;4588953;19;19915;-27
2022/05/16 01:16:16;;;;;;;;;;;14.70;96.20;;;;;;4589878;19;19919;-27
2022/05/16 01:17:47;;;;;;;;;;;14.70;96.10;;;;;;4590551;19;19952;-27
2022/05/16 01:19:18;;;;;;;;;;;14.70;96.20;;;;;;4590345;19;19915;-29
2022/05/16 01:21:08;;;;;;;;;;;14.70;96.10;;;;;;4590126;19;19910;-27
2022/05/16 01:22:42;;;;;;;;;;;14.60;96.20;;;;;;4590275;19;19919;-28
2022/05/16 01:24:14;;;;;;;;;;;14.60;96.00;;;;;;4590815;19;20321;-27
2022/05/16 01:25:45;;;;;;;;;;;14.60;96.10;;;;;;4588968;19;19986;-27
2022/05/16 01:27:16;;;;;;;;;;;14.60;96.00;;;;;;4589400;19;20248;-27
2022/05/16 01:28:47;;;;;;;;;;;14.60;96.10;;;;;;4589811;19;20261;-28
2022/05/16 01:30:38;;;;;;;;;;;14.60;96.00;;;;;;4590498;19;19982;-27
2022/05/16 01:32:10;;;;;;;;;;;14.60;96.10;;;;;;4587598;19;19915;-27
2022/05/16 01:33:41;;;;;;;;;;;14.60;96.00;;;;;;4586853;19;20357;-27
2022/05/16 01:35:12;;;;;;;;;;;14.60;96.10;;;;;;4591644;19;19911;-27
2022/05/16 01:36:43;;;;;;;;;;;14.60;96.10;;;;;;4592506;19;20325;-29
2022/05/16 01:38:23;;;;;;;;;;;14.60;96.10;;;;;;4592323;19;19911;-27
2022/05/16 01:39:54;;;;;;;;;;;14.60;96.10;;;;;;4592002;19;19913;-28
2022/05/16 01:41:25;;;;;;;;;;;14.60;96.10;;;;;;4592112;19;20260;-28
2022/05/16 01:42:56;;;;;;;;;;;14.60;95.90;;;;;;4592499;19;19978;-29
2022/05/16 01:44:27;;;;;;;;;;;14.60;96.00;;;;;;4592069;19;19918;-27
2022/05/16 01:45:58;;;;;;;;;;;14.60;96.00;;;;;;4592056;19;20265;-27
2022/05/16 01:47:29;;;;;;;;;;;14.60;96.00;;;;;;4592304;19;20033;-29
2022/05/16 01:49:00;;;;;;;;;;;14.60;96.20;;;;;;4592478;19;19915;-27
2022/05/16 01:50:31;;;;;;;;;;;14.60;96.10;;;;;;4591797;19;19919;-29
2022/05/16 01:52:02;;;;;;;;;;;14.60;96.00;;;;;;4591574;19;20327;-27
2022/05/16 01:53:33;;;;;;;;;;;14.60;96.00;;;;;;4592036;19;19911;-29
2022/05/16 01:55:05;;;;;;;;;;;14.60;96.00;;;;;;4592686;19;19922;-27
2022/05/16 01:56:36;;;;;;;;;;;14.50;95.90;;;;;;4591614;19;19922;-26
2022/05/16 01:58:07;;;;;;;;;;;14.50;96.00;;;;;;4591439;19;20341;-28
2022/05/16 01:59:37;;;;;;;;;;;14.50;96.00;;;;;;4591929;19;19922;-27
2022/05/16 02:01:08;;;;;;;;;;;14.50;95.90;;;;;;4592234;19;20266;-27
2022/05/16 02:02:41;;;;;;;;;;;14.50;95.90;;;;;;4591514;19;19918;-27
2022/05/16 02:04:12;;;;;;;;;;;14.50;95.90;;;;;;4591596;19;19929;-27
2022/05/16 02:05:43;;;;;;;;;;;14.50;95.90;;;;;;4591487;19;19922;-27
2022/05/16 02:07:14;;;;;;;;;;;14.50;96.00;;;;;;4591658;19;19915;-29
2022/05/16 02:08:45;;;;;;;8.30;5.72;;;14.50;95.90;;;;;;4591120;19;19919;-28
2022/05/16 02:10:17;;;;;;;8.75;5.60;;;14.60;96.10;;;;;;4592355;19;20366;-27
2022/05/16 02:11:48;;;;;;;7.53;5.43;;;14.50;96.10;;;;;;4592768;19;20358;-27
2022/05/16 02:13:19;;;;;;;6.07;4.20;;;14.50;95.90;;;;;;4592526;19;20014;-27
2022/05/16 02:14:50;;;;;;;6.18;4.00;;;14.50;95.90;;;;;;4592612;19;20014;-27
2022/05/16 02:16:22;;;;;;;5.00;3.97;;;14.50;95.90;;;;;;4592633;19;20019;-27
2022/05/16 02:17:53;;;;;;;5.80;3.80;;;14.50;95.90;;;;;;4592739;19;20010;-27
2022/05/16 02:19:24;;;;;;;5.53;3.47;;;14.50;95.80;;;;;;4592663;19;20018;-28
2022/05/16 02:24:38;;;;;;;;;;;14.50;95.90;;;;;;4592968;19;20074;-29
2022/05/16 02:24:38;;;;;;;;;;;14.50;95.70;;;;;;4594111;19;19907;-29
2022/05/16 02:26:09;;;;;;;;;;;14.50;95.80;;;;;;4593964;19;19921;-27
2022/05/16 02:27:40;;;;;;;;;;;14.50;95.70;;;;;;4593272;19;19915;-27
2022/05/16 02:29:11;;;;;;;;;;;14.50;95.60;;;;;;4593668;19;19911;-28
2022/05/16 02:30:42;;;;;;;;;;;14.50;95.60;;;;;;4593423;19;19952;-27
2022/05/16 02:32:13;;;;;;;;;;;14.50;95.50;;;;;;4593147;19;19914;-26
2022/05/16 02:33:44;;;;;;;;;;;14.50;95.50;;;;;;4592489;19;19915;-29
2022/05/16 02:35:15;;;;;;;;;;;14.50;95.50;;;;;;4593262;19;20269;-27
2022/05/16 02:36:46;;;;;;;;;;;14.40;95.40;;;;;;4593556;19;20318;-27
2022/05/16 02:38:17;;;;;;;;;;;14.40;95.50;;;;;;4592361;19;19925;-27
2022/05/16 02:39:48;;;;;;;;;;;14.40;95.60;;;;;;4593064;19;19919;-27
2022/05/16 02:41:19;;;;;;;;;;;14.40;95.60;;;;;;4593459;19;19918;-29
2022/05/16 02:42:50;;;;;;;;;;;14.40;95.60;;;;;;4593611;19;19986;-27
2022/05/16 02:44:21;;;;;;;;;;;14.40;95.60;;;;;;4592768;19;19921;-27
2022/05/16 02:45:52;;;;;;;;;;;14.40;95.60;;;;;;4592091;19;20273;-27
2022/05/16 02:47:23;;;;;;;;;;;14.40;95.50;;;;;;4593247;19;19922;-27
2022/05/16 02:48:54;;;;;;;;;;;14.40;95.60;;;;;;4591712;19;19926;-27
2022/05/16 02:50:25;;;;;;;;;;;14.40;95.60;;;;;;4592601;19;19919;-27
2022/05/16 02:51:56;;;;;;;;;;;14.40;95.50;;;;;;4591790;19;19914;-27
2022/05/16 02:53:27;;;;;;;;;;;14.40;95.60;;;;;;4592965;19;19910;-29
2022/05/16 02:55:00;;;;;;;;;;;14.40;95.50;;;;;;4591526;19;20324;-28
2022/05/16 02:56:31;;;;;;;;;;;14.40;95.50;;;;;;4592676;19;20281;-27
2022/05/16 02:58:02;;;;;;;;;;;14.40;95.40;;;;;;4592821;19;19915;-27
2022/05/16 02:59:33;;;;;;;;;;;14.40;95.50;;;;;;4593038;19;19939;-27
2022/05/16 03:01:05;;;;;;;;;;;14.40;95.10;;;;;;4592760;19;19926;-28
2022/05/16 03:02:36;;;;;;;;;;;14.40;94.90;;;;;;4593014;19;19918;-28
2022/05/16 03:04:07;;;;;;;;;;;14.40;94.70;;;;;;4593269;19;19922;-28
2022/05/16 03:05:37;;;;;;;;;;;14.40;94.80;;;;;;4592899;19;19921;-28
2022/05/16 03:07:09;;;;;;;;;;;14.40;94.80;;;;;;4592450;19;20349;-28
2022/05/16 03:08:39;;;;;;;;;;;14.40;94.70;;;;;;4592951;19;19919;-27
2022/05/16 03:10:11;;;;;;;;;;;14.40;94.90;;;;;;4592749;19;19938;-27
2022/05/16 03:11:42;;;;;;;;;;;14.40;94.80;;;;;;4592347;19;19918;-29
2022/05/16 03:13:13;;;;;;;;;;;14.40;94.70;;;;;;4592579;19;19923;-27
2022/05/16 03:14:44;;;;;;;;;;;14.40;94.80;;;;;;4591577;19;19919;-27
2022/05/16 03:16:15;;;;;;;;;;;14.40;94.70;;;;;;4592325;19;19978;-27
2022/05/16 03:17:46;;;;;;;;;;;14.40;94.70;;;;;;4591102;19;19914;-27
2022/05/16 03:19:17;;;;;;;;;;;14.40;94.80;;;;;;4591786;19;20003;-29
2022/05/16 03:20:48;;;;;;;;;;;14.40;94.90;;;;;;4592744;19;19919;-27
2022/05/16 03:22:19;;;;;;;;;;;14.40;95.00;;;;;;4592831;19;20009;-29
2022/05/16 03:23:50;;;;;;;;;;;14.40;95.10;;;;;;4592261;19;19950;-29
2022/05/16 03:25:21;;;;;;;;;;;14.40;94.90;;;;;;4592333;19;19910;-29
2022/05/16 03:26:52;;;;;;;;;;;14.40;94.90;;;;;;4592363;19;20248;-27
2022/05/16 03:28:25;;;;;;;;;;;14.40;94.80;;;;;;4591998;19;19918;-27
2022/05/16 03:29:56;;;;;;;;;;;14.40;94.90;;;;;;4592250;19;19970;-27
2022/05/16 03:31:27;;;;;;;;;;;14.40;95.00;;;;;;4591797;19;20261;-29
2022/05/16 03:32:58;;;;;;;;;;;14.40;95.10;;;;;;4592402;19;19918;-27
2022/05/16 03:34:29;;;;;;;;;;;14.40;95.00;;;;;;4591746;19;19926;-28
2022/05/16 03:36:00;;;;;;;;;;;14.40;95.10;;;;;;4592198;19;20267;-28
2022/05/16 03:37:31;;;;;;;;;;;14.40;95.20;;;;;;4592028;19;19918;-27
2022/05/16 03:40:52;;;;;;;;;;;14.40;95.30;;;;;;4591527;19;19915;-28
2022/05/16 03:42:23;;;;;;;;;;;14.40;95.30;;;;;;4592090;19;19921;-27
2022/05/16 03:43:55;;;;;;;;;;;14.40;95.30;;;;;;4591811;19;19914;-29
2022/05/16 03:45:25;;;;;;;;;;;14.40;95.30;;;;;;4592179;19;20355;-27
2022/05/16 03:46:56;;;;;;;;;;;14.40;95.40;;;;;;4591512;19;19918;-27
2022/05/16 03:48:27;;;;;;;;;;;14.40;95.50;;;;;;4591378;19;20324;-28
2022/05/16 03:49:58;;;;;;;;;;;14.40;95.50;;;;;;4592206;19;19978;-27
2022/05/16 03:51:29;;;;;;;;;;;14.40;95.60;;;;;;4592202;19;19915;-29
2022/05/16 03:53:00;;;;;;;;;;;14.40;95.50;;;;;;4590683;19;19923;-28
2022/05/16 03:54:31;;;;;;;;;;;14.40;95.60;;;;;;4591433;19;20268;-27
2022/05/16 03:56:02;;;;;;;;;;;14.40;95.80;;;;;;4592133;19;19936;-28
2022/05/16 03:57:33;;;;;;;;;;;14.40;95.90;;;;;;4589355;19;20275;-27
2022/05/16 03:59:04;;;;;;;;;;;14.40;95.70;;;;;;4590415;19;19918;-28
2022/05/16 04:00:35;;;;;;;;;;;14.40;95.60;;;;;;4591780;19;19930;-28
2022/05/16 04:02:08;;;;;;;;;;;14.40;95.70;;;;;;4590889;19;19923;-29
2022/05/16 04:03:38;;;;;;;;;;;14.40;95.70;;;;;;4591202;19;19974;-27
2022/05/16 04:05:10;;;;;;;;;;;14.40;95.90;;;;;;4591389;19;19943;-28
2022/05/16 04:06:41;;;;;;;;;;;14.40;95.90;;;;;;4591872;19;20349;-29
2022/05/16 04:08:12;;;;;;;;;;;14.40;96.20;;;;;;4591900;19;19978;-27
2022/05/16 04:09:43;;;;;;;;;;;14.40;96.10;;;;;;4591536;19;19919;-27
2022/05/16 04:11:16;;;;;;;;;;;14.40;96.10;;;;;;4591236;19;19911;-27
2022/05/16 04:12:47;;;;;;;;;;;14.40;96.30;;;;;;4591689;19;19925;-27
2022/05/16 04:14:18;;;;;;;;;;;14.40;96.30;;;;;;4591585;19;19933;-27
2022/05/16 04:15:49;;;;;;;;;;;14.40;96.40;;;;;;4591128;19;19918;-27
2022/05/16 04:17:20;;;;;;;;;;;14.40;96.70;;;;;;4591606;19;20007;-28
2022/05/16 04:18:51;;;;;;;;;;;14.40;96.80;;;;;;4589454;19;19914;-27
2022/05/16 04:20:23;;;;;;;;;;;14.40;96.90;;;;;;4590631;19;20324;-27
2022/05/16 04:21:54;;;;;;;;;;;14.50;97.00;;;;;;4591440;19;20017;-29
2022/05/16 04:23:24;;;;;;;;;;;14.40;97.00;;;;;;4591140;19;19919;-28
2022/05/16 04:24:55;;;;;;;;;;;14.40;97.40;;;;;;4591399;19;20270;-29
2022/05/16 04:26:26;;;;;;;;;;;14.40;97.20;;;;;;4589733;19;19986;-28
2022/05/16 04:27:57;;;;;;;;;;;14.40;97.30;;;;;;4590562;19;19934;-28
2022/05/16 04:29:28;;;;;;;;;;;14.40;97.30;;;;;;4591744;19;19921;-27
2022/05/16 04:30:59;;;;;;;;;;;14.40;97.40;;;;;;4591302;19;19974;-27
2022/05/16 04:32:31;;;;;;;;;;;14.40;97.50;;;;;;4591017;19;19939;-27
2022/05/16 04:34:09;;;;;;;;;;;14.40;97.60;;;;;;4590259;19;19919;-27
2022/05/16 04:35:40;;;;;;;;;;;14.40;97.70;;;;;;4590860;19;19943;-27
2022/05/16 04:37:11;;;;;;;;;;;14.40;97.80;;;;;;4590700;19;19915;-29
2022/05/16 04:38:43;;;;;;;;;;;14.40;97.80;;;;;;4590033;19;19925;-27
2022/05/16 04:40:14;;;;;;;;;;;14.50;98.10;;;;;;4590900;19;19967;-27
2022/05/16 04:43:34;;;;;;;;;;;14.50;98.40;;;;;;4591275;19;19938;-27
2022/05/16 04:45:07;;;;;;;;;;;14.50;98.60;;;;;;4590583;19;19919;-28
2022/05/16 04:46:37;;;;;;;;;;;14.50;98.70;;;;;;4590786;19;20340;-27
2022/05/16 04:48:08;;;;;;;;;;;14.50;98.80;;;;;;4591121;19;19918;-28
2022/05/16 04:49:40;;;;;;;;;;;14.50;99.00;;;;;;4590374;19;20234;-27
2022/05/16 04:51:11;;;;;;;;;;;14.50;99.00;;;;;;4590742;19;19918;-28
2022/05/16 04:52:42;;;;;;;;;;;14.60;99.50;;;;;;4590101;19;20242;-30
2022/05/16 04:54:13;;;;;;;;;;;14.90;98.80;;;;;;4591000;19;19911;-29
2022/05/16 04:55:44;;;;;;;;;;;15.20;98.30;;;;;;4590350;19;19915;-28
2022/05/16 04:57:15;;;;;;;;;;;15.50;97.70;;;;;;4590697;19;19919;-28
2022/05/16 04:58:46;;;;;;;;;;;15.80;97.20;;;;;;4589724;19;20256;-27
2022/05/16 05:00:19;;;;;;;;;;;16.10;96.80;;;;;;4590910;19;19934;-27
2022/05/16 05:01:50;;;;;;;;;;;16.30;96.40;;;;;;4589403;19;19911;-28
2022/05/16 05:03:21;;;;;;;;;;;16.50;96.00;;;;;;4590355;19;19939;-27
2022/05/16 05:04:52;;;;;;;;;;;16.70;95.70;;;;;;4590697;19;20267;-28
2022/05/16 05:06:23;;;;;;;;;;;16.80;95.40;;;;;;4590292;19;19915;-28
2022/05/16 05:07:54;;;;;;;;;;;16.90;95.20;;;;;;4590381;19;19918;-28
2022/05/16 05:09:25;;;;;;;;;;;17.00;95.00;;;;;;4595575;19;19919;-29
2022/05/16 05:14:38;;;;;;;;;;;17.40;94.50;;;;;;4594929;19;19925;-28
2022/05/16 05:16:10;;;;;;;;;;;17.50;94.40;;;;;;4594743;19;20229;-28
2022/05/16 05:17:41;;;;;;;;;;;17.50;94.30;;;;;;4593968;19;19939;-28
2022/05/16 05:19:12;;;;;;;;;;;17.60;94.30;;;;;;4593200;19;19966;-29
2022/05/16 05:20:45;;;;;;;;;;;17.70;94.20;;;;;;4594622;19;20271;-29
2022/05/16 05:22:16;;;;;;;;;;;17.70;94.10;;;;;;4593518;19;19914;-28
2022/05/16 05:23:47;;;;;;;;;;;17.80;94.10;;;;;;4594605;19;19971;-29
2022/05/16 05:25:18;;;;;;;;;;;17.90;94.00;;;;;;4594886;19;19974;-28
2022/05/16 05:26:49;;;;;;;;;;;17.90;93.90;;;;;;4593480;19;19915;-28
2022/05/16 05:28:20;;;;;;;;;;;18.00;93.90;;;;;;4594002;19;19922;-28
2022/05/16 05:29:52;;;;;;;;;;;18.00;93.90;;;;;;4595349;19;19921;-28
2022/05/16 05:31:25;;;;;;;;;;;18.00;93.80;;;;;;4594580;19;19929;-28
2022/05/16 05:32:57;;;;;;;;;;;18.10;93.80;;;;;;4594133;19;19970;-28
2022/05/16 05:34:28;;;;;;;;;;;18.20;93.80;;;;;;4593496;19;19970;-28
2022/05/16 05:36:00;;;;;;;;;;;18.20;93.70;;;;;;4594295;19;19918;-29
2022/05/16 05:37:31;;;;;;;;;;;18.20;93.70;;;;;;4593190;19;20364;-28
2022/05/16 05:39:03;;;;;;;;;;;18.30;93.70;;;;;;4592854;19;19938;-28
2022/05/16 05:40:33;;;;;;;;;;;18.30;93.70;;;;;;4594507;19;19922;-28
2022/05/16 05:42:04;;;;;;;;;;;18.30;93.60;;;;;;4595063;19;20254;-28
2022/05/16 05:43:35;;;;;;;;;;;18.40;93.60;;;;;;4594112;19;19922;-28
2022/05/16 05:45:07;;;;;;;;;;;18.40;93.60;;;;;;4594495;19;19982;-28
2022/05/16 05:46:38;;;;;;;;;;;18.40;93.60;;;;;;4594429;19;19911;-29
2022/05/16 05:48:09;;;;;;;;;;;18.50;93.60;;;;;;4594034;19;20344;-28
2022/05/16 05:49:40;;;;;;;3.80;1.80;;;18.50;93.50;;;;;;4593708;19;19915;-28
2022/05/16 05:51:12;;;;;;;2.60;1.70;;;18.50;93.60;;;;;;4593275;19;20051;-28
2022/05/16 05:52:43;;;;;;;2.85;1.50;;;18.60;93.50;;;;;;4591410;19;20011;-29
2022/05/16 05:54:14;;;;;;;2.58;1.48;;;18.60;93.50;;;;;;4592470;19;20044;-28
2022/05/16 05:55:47;;;;;;;2.00;1.33;;;18.60;93.50;;;;;;4593388;19;20340;-29
2022/05/16 05:57:18;;;;;;;2.92;1.80;;;18.60;93.50;;;;;;4593239;19;20023;-28
2022/05/16 05:58:49;;;;;;;3.30;1.90;;;18.70;93.80;;;;;;4592272;19;20015;-28
2022/05/16 06:00:20;;;;;;;2.88;1.65;;;18.70;93.50;;;;;;4592896;19;20035;-28
2022/05/16 06:01:51;;;;;;;2.65;1.48;;;18.80;93.50;;;;;;4592949;19;20044;-29
2022/05/16 06:03:22;;;;;;;2.58;1.50;;;18.80;93.40;;;;;;4593038;19;20440;-28
2022/05/16 06:04:53;;;;;;;2.58;1.42;;;18.80;93.40;;;;;;4593255;19;20014;-29
2022/05/16 06:06:25;;;;;;;2.97;1.35;;;18.80;93.50;;;;;;4592702;19;20362;-28
2022/05/16 06:07:55;;;;;;;1.80;1.20;;;18.80;93.40;;;;;;4591525;19;20010;-28
2022/05/16 06:09:27;;;;;;;2.08;1.13;;;18.80;93.40;;;;;;4593061;19;20052;-28
2022/05/16 06:10:58;;;;;;;1.90;1.30;;;18.90;93.80;;;;;;4591704;19;20020;-28
2022/05/16 06:12:29;;;;;;;2.08;1.08;;;18.90;93.90;;;;;;4592420;19;20018;-29
2022/05/16 06:14:00;;;;;;;2.25;1.20;;;19.00;93.30;;;;;;4593262;19;20074;-28
2022/05/16 06:15:31;;;;;;;1.52;1.10;;;19.00;93.30;;;;;;4593326;19;20411;-28
2022/05/16 06:17:02;;;;;;;2.20;1.10;;;19.00;93.30;;;;;;4591233;19;20006;-28
2022/05/16 06:18:34;;;;;;;1.65;1.00;;;18.90;93.30;;;;;;4591605;19;20015;-28
2022/05/16 06:20:06;;;;;;;2.20;1.10;;;19.00;93.40;;;;;;4591005;19;19999;-27
2022/05/16 06:21:38;;;;;;;1.95;1.05;;;19.00;93.30;;;;;;4591957;19;20021;-28
2022/05/16 06:23:09;;;;;;;2.20;1.00;;;19.10;93.30;;;;;;4591391;19;20014;-29
2022/05/16 06:26:29;;;;;;;2.35;1.08;;;19.20;93.20;;;;;;4592292;19;20066;-29
2022/05/16 06:28:27;;;;;;;2.05;1.10;;;19.20;93.10;;;;;;4592540;19;20007;-29
2022/05/16 06:29:59;;;;;;;2.47;1.00;;;19.30;93.10;;;;;;4591301;19;20399;-28
2022/05/16 06:31:29;;;;;;;2.22;1.27;;;19.30;93.40;;;;;;4590972;19;20388;-28
2022/05/16 06:33:01;;;;;;;4.32;1.55;;;19.30;93.60;;;;;;4591030;19;20014;-29
2022/05/16 06:34:32;;;;;;;2.30;1.10;;;19.30;93.50;;;;;;4592579;19;20018;-28
2022/05/16 06:36:05;;;;;;;2.13;1.08;;;19.30;93.70;;;;;;4593161;19;19999;-28
2022/05/16 06:37:36;;;;;;;2.00;0.90;;;19.30;93.40;;;;;;4592412;19;20393;-28
2022/05/16 06:39:07;;;;;;;2.78;1.38;;;19.30;93.40;;;;;;4591251;19;20011;-29
2022/05/16 06:40:38;;;;;;;2.60;1.38;;;19.20;93.30;;;;;;4592503;19;20494;-29
2022/05/16 06:42:09;;;;;;;;;;;19.20;93.50;;;;;;4592977;19;20014;-28
2022/05/16 06:43:40;;;;;;;3.05;1.10;;;19.20;93.30;;;;;;4592183;19;19947;-30
2022/05/16 06:45:12;;;;;;;1.40;0.98;;;19.20;93.60;;;;;;4592478;19;20014;-30
2022/05/16 06:46:44;;;;;;;1.98;1.08;;;19.20;93.50;;;;;;4591047;19;20025;-28
2022/05/16 06:48:15;;;;;;;1.83;1.20;;;19.10;93.50;;;;;;4591545;19;20018;-29
2022/05/16 06:49:46;;;;;;;1.95;1.02;;;19.10;93.60;;;;;;4592242;19;20392;-28
2022/05/16 06:51:18;;;;;;;;;;;19.10;93.50;;;;;;4592294;19;19999;-27
2022/05/16 06:52:49;;;;;;;1.65;0.90;;;19.10;93.40;;;;;;4591230;19;19936;-28
2022/05/16 06:54:20;;;;;;;1.77;1.13;;;19.10;93.60;;;;;;4591830;19;20467;-28
2022/05/16 06:55:51;;;;;;;1.55;1.00;;;19.10;93.40;;;;;;4591011;19;20011;-28
2022/05/16 06:57:22;;;;;;;1.75;0.98;;;19.10;93.40;;;;;;4590593;19;20025;-28
2022/05/16 06:58:53;;;;;;;1.48;1.02;;;19.10;93.30;;;;;;4591073;19;20462;-28
2022/05/16 07:00:26;;;;;;;1.60;1.00;;;19.20;93.30;;;;;;4590702;19;20017;-30
2022/05/16 07:01:57;;;;;;;2.38;1.00;;;19.30;93.10;;;;;;4590979;19;20031;-27
2022/05/16 07:03:29;;;;;;;1.70;0.90;;;19.50;93.00;;;;;;4591429;19;20015;-28
2022/05/16 07:05:01;;;;;;;2.15;1.00;;;19.60;92.80;;;;;;4591435;19;20088;-29
2022/05/16 07:06:32;;;;;;;1.92;1.00;;;19.70;92.60;;;;;;4590941;19;20010;-28
2022/05/16 07:08:03;;;;;;;1.25;0.88;;;19.80;92.50;;;;;;4591298;19;20014;-30
2022/05/16 07:09:37;;;;;;;2.63;1.05;;;19.90;92.40;;;;;;4591952;19;20015;-28
2022/05/16 07:11:09;;;;;;;;;;;20.00;92.20;;;;;;4592361;19;20046;-28
2022/05/16 07:12:39;;;;;;;;;;;20.10;92.10;;;;;;4592820;19;19942;-29
2022/05/16 07:14:10;;;;;;;;;;;20.20;92.10;;;;;;4592837;19;19907;-28
2022/05/16 07:15:42;;;;;;;;;;;20.30;91.90;;;;;;4593034;19;19966;-30
2022/05/16 07:17:13;;;;;;;;;;;20.40;91.80;;;;;;4592391;19;19915;-29
2022/05/16 07:18:43;;;;;;;;;;;20.50;91.70;;;;;;4592037;19;19922;-28
2022/05/16 07:20:14;;;;;;;;;;;20.60;91.60;;;;;;4590417;19;19911;-30
2022/05/16 07:21:46;;;;;;;;;;;20.70;91.40;;;;;;4590100;19;19919;-27
2022/05/16 07:23:16;;;;;;;;;;;20.70;91.30;;;;;;4590140;19;19919;-29
2022/05/16 07:24:48;;;;;;;;;;;20.80;91.20;;;;;;4589596;19;20340;-29
2022/05/16 07:28:08;;;;;;;;;;;20.90;91.00;;;;;;4590383;19;19919;-29
2022/05/16 07:29:39;;;;;;;;;;;20.90;90.90;;;;;;4586093;19;19936;-28
2022/05/16 07:31:10;;;;;;;;;;;21.00;90.80;;;;;;4589502;19;19934;-28
2022/05/16 07:32:42;;;;;;;;;;;21.00;90.90;;;;;;4589597;19;19974;-28
2022/05/16 07:34:14;;;;;;;;;;;21.00;90.70;;;;;;4588285;19;19971;-28
2022/05/16 07:35:45;;;;;;;;;;;21.00;90.70;;;;;;4589379;19;19922;-28
2022/05/16 07:37:16;;;;;;;;;;;21.10;90.50;;;;;;4590343;19;20334;-28
2022/05/16 07:38:47;;;;;;;;;;;21.10;90.40;;;;;;4589678;19;19914;-28
2022/05/16 07:40:19;;;;;;;;;;;21.20;90.30;;;;;;4588496;19;19919;-29
2022/05/16 07:41:52;;;;;;;;;;;20.20;88.30;;;;;;4590239;19;19911;-29
2022/05/16 07:43:24;;;;;;;;;;;18.30;85.10;;;;;;4589333;19;20345;-28
2022/05/16 07:44:55;;;;;;;1.27;0.80;;;17.10;86.70;;;;;;4588983;19;19970;-28
2022/05/16 07:46:26;;;;;;;;;;;16.40;87.30;;;;;;4588559;19;20006;-28
2022/05/16 07:48:02;;;;;;;;;;;16.00;90.50;;;;;;4588791;19;20319;-28
2022/05/16 07:49:33;;;;;;;;;;;15.80;90.80;;;;;;4587799;19;20340;-28
2022/05/16 07:51:04;;;;;;;;;;;15.60;91.50;;;;;;4589893;19;19926;-27
2022/05/16 07:52:35;;;;;;;;;;;15.50;91.90;;;;;;4590525;19;19919;-28
2022/05/16 07:54:08;;;;;;;;;;;15.50;91.70;;;;;;4591203;19;20330;-27
2022/05/16 07:55:43;;;;;;;;;;;15.40;91.40;;;;;;4591323;19;19939;-28
2022/05/16 07:57:14;;;;;;;;;;;15.40;91.60;;;;;;4590898;19;19942;-27
2022/05/16 07:58:45;;;;;;;;;;;15.40;92.10;;;;;;4589403;19;19915;-27
2022/05/16 08:00:16;;;;;;;;;;;15.40;91.50;;;;;;4591596;19;19929;-29
2022/05/16 08:01:47;;;;;;;;;;;15.40;91.70;;;;;;4590533;19;20324;-28
2022/05/16 08:03:19;;;;;;;;;;;15.30;91.30;;;;;;4590885;19;19922;-28
2022/05/16 08:04:50;;;;;;;;;;;15.30;91.80;;;;;;4591154;19;19978;-28
2022/05/16 08:06:21;;;;;;;;;;;15.30;92.10;;;;;;4591585;19;19915;-28
2022/05/16 08:11:31;;;;;;;;;;;15.30;91.40;;;;;;4591728;19;20353;-29
2022/05/16 08:13:03;;;;;;;;;;;15.30;91.00;;;;;;4591374;19;19923;-28
2022/05/16 08:14:34;;;;;;;;;;;15.30;93.10;;;;;;4592103;19;19943;-28
2022/05/16 08:16:05;;;;;;;;;;;15.30;93.30;;;;;;4591391;19;19926;-27
2022/05/16 08:17:36;;;;;;;;;;;15.30;94.50;;;;;;4589893;19;19978;-29
2022/05/16 08:19:07;;;;;;;;;;;15.30;94.20;;;;;;4591263;19;19915;-28
2022/05/16 08:20:39;;;;;;;;;;;15.30;95.20;;;;;;4590422;19;19929;-27
2022/05/16 08:22:10;;;;;;;;;;;15.30;93.70;;;;;;4590956;19;20424;-27
2022/05/16 08:23:41;;;;;;;;;;;15.30;93.90;;;;;;4591468;19;19914;-28
2022/05/16 08:25:13;;;;;;;;;;;15.30;95.00;;;;;;4592435;19;20278;-29
2022/05/16 08:26:44;;;;;;;;;;;15.30;94.90;;;;;;4591354;19;19919;-27
2022/05/16 08:28:15;;;;;;;;;;;15.30;94.50;;;;;;4590684;19;19970;-28
2022/05/16 08:29:47;;;;;;;;;;;15.30;93.70;;;;;;4590830;19;19974;-28
2022/05/16 08:31:18;;;;;;;;;;;15.30;95.20;;;;;;4591234;19;19946;-28
2022/05/16 08:32:49;;;;;;;;;;;15.30;94.40;;;;;;4591036;19;19919;-27
2022/05/16 08:34:20;;;;;;;;;;;15.30;94.50;;;;;;4589834;19;19914;-28
2022/05/16 08:41:23;;;;;;;;;;;15.30;94.70;;;;;;4590982;19;19986;-29
2022/05/16 08:43:02;;;;;;;;;;;15.30;93.30;;;;;;4589480;19;19952;-29
2022/05/16 08:44:51;;;;;;;;;;;15.30;94.70;;;;;;4594522;19;19915;-28
2022/05/16 08:46:24;;;;;;;;;;;15.30;92.90;;;;;;4595009;19;19925;-28
2022/05/16 08:47:55;;;;;;;;;;;15.30;93.20;;;;;;4595823;19;19919;-27
2022/05/16 08:49:25;;;;;;;;;;;15.30;93.20;;;;;;4596076;19;19914;-28
2022/05/16 08:51:06;;;;;;;;;;;15.30;93.30;;;;;;4595325;19;19923;-28
2022/05/16 08:52:43;;;;;;;;;;;15.30;91.70;;;;;;4593334;19;19929;-28
2022/05/16 08:54:32;;;;;;;;;;;15.30;92.70;;;;;;4593258;19;20029;-29
2022/05/16 08:56:04;;;;;;;;;;;15.30;92.20;;;;;;4594837;19;19919;-29
2022/05/16 08:57:46;;;;;;;;;;;15.30;92.90;;;;;;4593996;19;19935;-28
2022/05/16 08:59:21;;;;;;;;;;;15.30;92.10;;;;;;4592738;19;19915;-27
2022/05/16 09:00:53;;;;;;;;;;;15.30;93.80;;;;;;4594215;19;19918;-28
2022/05/16 09:02:24;;;;;;;;;;;15.30;92.80;;;;;;4594130;19;19924;-28
2022/05/16 09:03:59;;;;;;;;;;;15.30;93.50;;;;;;4594696;19;19925;-28
2022/05/16 09:05:37;;;;;;;;;;;15.30;93.20;;;;;;4594074;19;19996;-28
2022/05/16 09:07:26;;;;;;;;;;;15.40;93.00;;;;;;4593427;19;19919;-28
2022/05/16 09:08:57;;;;;;;;;;;15.30;94.40;;;;;;4594146;19;19915;-28